createdAt,value
2023-02-13T00:01:00.539Z,29.38
2023-02-13T00:03:28.635Z,32.03
2023-02-13T00:05:55.576Z,35.30
2023-02-13T00:08:22.491Z,36.85
2023-02-13T00:10:49.320Z,28.23
2023-02-13T00:13:16.677Z,34.22
2023-02-13T00:15:44.920Z,33.70
2023-02-13T00:18:11.904Z,34.47
2023-02-13T00:20:39.101Z,31.83
2023-02-13T00:23:05.923Z,34.03
2023-02-13T00:25:32.939Z,31.90
2023-02-13T00:27:59.836Z,34.20
2023-02-13T00:30:26.897Z,34.35
2023-02-13T00:32:55.165Z,30.77
2023-02-13T00:35:22.013Z,35.28
2023-02-13T00:37:49.748Z,35.88
2023-02-13T00:40:16.786Z,34.65
2023-02-13T00:42:46.139Z,34.85
2023-02-13T00:45:17.778Z,35.20
2023-02-13T00:47:46.185Z,33.58
2023-02-13T00:50:14.692Z,34.95
2023-02-13T00:52:41.670Z,34.47
2023-02-13T00:55:08.612Z,28.88
2023-02-13T00:57:37.802Z,36.67
2023-02-13T01:00:05.660Z,32.42
2023-02-13T01:02:32.491Z,34.80
2023-02-13T01:04:59.231Z,33.65
2023-02-13T01:07:28.854Z,31.85
2023-02-13T01:09:55.786Z,31.98
2023-02-13T01:12:23.889Z,35.13
2023-02-13T01:14:50.653Z,35.42
2023-02-13T01:17:19.431Z,33.72
2023-02-13T01:19:46.285Z,32.42
2023-02-13T01:22:13.214Z,34.20
2023-02-13T01:24:41.501Z,33.42
2023-02-13T01:27:08.382Z,32.13
2023-02-13T01:29:35.387Z,32.20
2023-02-13T01:32:04.074Z,34.78
2023-02-13T01:34:31.346Z,31.85
2023-02-13T01:37:00.319Z,32.50
2023-02-13T01:39:30.476Z,30.95
2023-02-13T01:41:58.963Z,30.95
2023-02-13T01:44:49.364Z,33.15
2023-02-13T01:47:22.313Z,32.60
2023-02-13T01:49:49.988Z,37.85
2023-02-13T01:52:17.741Z,34.08
2023-02-13T01:54:45.929Z,33.90
2023-02-13T01:57:18.561Z,36.05
2023-02-13T01:59:49.381Z,35.78
2023-02-13T02:02:17.047Z,33.45
2023-02-13T02:04:45.932Z,32.58
2023-02-13T02:07:24.619Z,34.67
2023-02-13T02:09:56.244Z,32.92
2023-02-13T02:12:27.469Z,30.30
2023-02-13T02:14:58.246Z,35.00
2023-02-13T02:17:26.496Z,33.65
2023-02-13T02:20:10.173Z,31.05
2023-02-13T02:23:03.222Z,34.28
2023-02-13T02:26:19.253Z,33.53
2023-02-13T02:29:35.844Z,32.53
2023-02-13T02:32:30.566Z,33.90
2023-02-13T02:35:10.111Z,32.45
2023-02-13T02:37:58.484Z,34.45
2023-02-13T02:40:33.869Z,33.25
2023-02-13T02:43:15.473Z,38.97
2023-02-13T02:45:53.250Z,35.63
2023-02-13T02:48:29.718Z,34.08
2023-02-13T02:51:03.207Z,40.60
2023-02-13T02:53:37.877Z,36.88
2023-02-13T02:56:11.721Z,40.67
2023-02-13T02:58:44.197Z,33.42
2023-02-13T03:01:20.546Z,35.83
2023-02-13T03:03:49.709Z,40.65
2023-02-13T03:06:25.902Z,35.80
2023-02-13T03:08:55.774Z,37.92
2023-02-13T03:11:25.124Z,38.83
2023-02-13T03:13:55.305Z,32.35
2023-02-13T03:16:28.524Z,37.47
2023-02-13T03:18:58.724Z,36.25
2023-02-13T03:21:44.422Z,35.90
2023-02-13T03:24:32.391Z,37.15
2023-02-13T03:27:08.929Z,36.10
2023-02-13T03:29:46.172Z,39.22
2023-02-13T03:32:27.435Z,38.03
2023-02-13T03:35:21.313Z,38.17
2023-02-13T03:37:57.642Z,36.67
2023-02-13T03:40:31.823Z,39.97
2023-02-13T03:43:08.633Z,40.28
2023-02-13T03:45:38.804Z,34.88
2023-02-13T03:48:09.543Z,38.25
2023-02-13T03:50:43.288Z,40.47
2023-02-13T03:53:13.152Z,37.05
2023-02-13T03:55:46.065Z,43.10
2023-02-13T03:58:17.813Z,42.83
2023-02-13T04:00:52.573Z,43.92
2023-02-13T04:03:26.845Z,43.00
2023-02-13T04:06:03.643Z,36.70
2023-02-13T04:08:30.981Z,41.65
2023-02-13T04:11:07.519Z,42.53
2023-02-13T04:13:41.856Z,38.42
2023-02-13T04:16:16.392Z,40.60
2023-02-13T04:18:46.302Z,36.88
2023-02-13T04:21:14.826Z,37.22
2023-02-13T04:23:41.936Z,41.53
2023-02-13T04:26:16.720Z,37.83
2023-02-13T04:28:45.379Z,38.47
2023-02-13T04:31:15.404Z,38.10
2023-02-13T04:33:44.888Z,39.25
2023-02-13T04:36:17.294Z,38.30
2023-02-13T04:38:46.542Z,35.00
2023-02-13T04:41:13.615Z,35.92
2023-02-13T04:43:40.993Z,37.45
2023-02-13T04:46:12.759Z,39.33
2023-02-13T04:48:50.404Z,37.22
2023-02-13T04:51:19.499Z,36.40
2023-02-13T04:53:48.059Z,37.30
2023-02-13T04:56:22.786Z,33.92
2023-02-13T04:58:49.979Z,38.58
2023-02-13T05:01:21.534Z,34.78
2023-02-13T05:03:48.818Z,37.65
2023-02-13T05:06:15.693Z,38.33
2023-02-13T05:08:42.911Z,34.22
2023-02-13T05:11:11.483Z,36.20
2023-02-13T05:13:38.368Z,36.70
2023-02-13T05:16:07.340Z,34.50
2023-02-13T05:18:34.416Z,37.65
2023-02-13T05:21:01.304Z,35.78
2023-02-13T05:23:31.573Z,37.97
2023-02-13T05:25:58.694Z,42.97
2023-02-13T05:28:33.245Z,36.55
2023-02-13T05:31:04.290Z,36.67
2023-02-13T05:33:31.587Z,35.85
2023-02-13T05:35:59.789Z,36.75
2023-02-13T05:38:26.757Z,42.53
2023-02-13T05:40:54.843Z,38.85
2023-02-13T05:43:21.994Z,40.03
2023-02-13T05:46:00.900Z,40.33
2023-02-13T05:48:28.003Z,40.35
2023-02-13T05:50:55.368Z,40.67
2023-02-13T05:54:05.014Z,39.97
2023-02-13T05:56:34.098Z,38.00
2023-02-13T05:59:07.458Z,41.20
2023-02-13T06:01:37.057Z,37.03
2023-02-13T06:04:07.158Z,42.25
2023-02-13T06:06:34.232Z,39.00
2023-02-13T06:09:07.728Z,38.15
2023-02-13T06:11:34.577Z,38.88
2023-02-13T06:14:01.320Z,40.05
2023-02-13T06:16:29.266Z,42.17
2023-02-13T06:19:05.506Z,41.25
2023-02-13T06:21:42.909Z,40.90
2023-02-13T06:24:12.539Z,37.58
2023-02-13T06:26:49.159Z,40.72
2023-02-13T06:29:15.985Z,41.85
2023-02-13T06:31:51.310Z,41.28
2023-02-13T06:34:38.282Z,46.03
2023-02-13T06:40:07.056Z,41.67
2023-02-13T06:42:37.134Z,40.80
2023-02-13T06:45:26.849Z,40.92
2023-02-13T06:47:54.177Z,37.92
2023-02-13T06:50:22.634Z,41.92
2023-02-13T06:52:51.562Z,42.58
2023-02-13T06:55:19.102Z,39.58
2023-02-13T06:58:03.644Z,40.30
2023-02-13T07:00:34.408Z,38.95
2023-02-13T07:03:03.592Z,46.78
2023-02-13T07:05:32.024Z,44.15
2023-02-13T07:07:59.314Z,39.80
2023-02-13T07:10:30.745Z,40.05
2023-02-13T07:18:51.597Z,40.67
2023-02-13T07:21:21.678Z,39.65
2023-02-13T07:23:48.877Z,46.42
2023-02-13T07:26:15.887Z,44.35
2023-02-13T07:28:42.900Z,41.10
2023-02-13T07:31:11.516Z,39.60
2023-02-13T07:33:38.862Z,38.75
2023-02-13T07:36:06.494Z,40.85
2023-02-13T07:38:36.516Z,45.17
2023-02-13T07:41:04.897Z,41.80
2023-02-13T07:43:32.022Z,42.83
2023-02-13T07:46:00.430Z,41.83
2023-02-13T07:48:29.693Z,42.92
2023-02-13T07:51:00.851Z,40.50
2023-02-13T07:53:28.941Z,38.97
2023-02-13T07:55:57.910Z,43.03
2023-02-13T07:58:25.357Z,38.97
2023-02-13T08:00:58.423Z,39.38
2023-02-13T08:03:31.816Z,43.92
2023-02-13T08:06:19.827Z,39.63
2023-02-13T08:08:47.395Z,37.78
2023-02-13T08:11:27.098Z,40.92
2023-02-13T08:13:53.852Z,42.22
2023-02-13T08:16:22.621Z,40.35
2023-02-13T08:18:50.668Z,42.65
2023-02-13T08:21:18.880Z,41.85
2023-02-13T08:23:46.182Z,47.08
2023-02-13T08:26:13.008Z,42.42
2023-02-13T08:28:41.219Z,41.15
2023-02-13T08:31:11.936Z,38.33
2023-02-13T08:33:39.284Z,44.78
2023-02-13T08:36:07.467Z,41.40
2023-02-13T08:38:35.193Z,43.58
2023-02-13T08:41:02.322Z,44.65
2023-02-13T08:43:29.104Z,45.45
2023-02-13T08:46:00.319Z,43.50
2023-02-13T08:48:28.536Z,44.50
2023-02-13T08:50:55.574Z,44.80
2023-02-13T08:53:22.693Z,42.97
2023-02-13T08:55:53.469Z,43.13
2023-02-13T08:58:20.579Z,44.75
2023-02-13T09:00:47.849Z,41.83
2023-02-13T09:03:21.358Z,44.42
2023-02-13T09:05:48.302Z,44.45
2023-02-13T09:08:17.912Z,42.22
2023-02-13T09:10:46.537Z,41.20
2023-02-13T09:13:13.683Z,41.53
2023-02-13T09:15:41.158Z,45.33
2023-02-13T09:18:08.526Z,38.70
2023-02-13T09:20:36.790Z,43.45
2023-02-13T09:23:06.194Z,41.80
2023-02-13T09:25:39.019Z,38.20
2023-02-13T09:28:06.341Z,38.90
2023-02-13T09:30:35.113Z,35.40
2023-02-13T09:33:01.803Z,44.83
2023-02-13T09:35:28.783Z,37.30
2023-02-13T09:37:57.065Z,40.10
2023-02-13T09:40:28.737Z,40.22
2023-02-13T09:43:06.936Z,42.95
2023-02-13T09:45:35.443Z,40.60
2023-02-13T09:48:02.632Z,37.03
2023-02-13T09:50:34.757Z,36.85
2023-02-13T09:53:04.667Z,40.63
2023-02-13T09:55:40.495Z,40.97
2023-02-13T09:58:16.861Z,36.22
2023-02-13T10:00:50.790Z,38.88
2023-02-13T10:03:31.341Z,39.10
2023-02-13T10:06:06.174Z,37.15
2023-02-13T10:08:58.103Z,38.45
2023-02-13T10:11:46.507Z,39.95
2023-02-13T10:14:20.210Z,34.80
2023-02-13T10:16:51.296Z,38.53
2023-02-13T11:19:53.072Z,35.10
2023-02-13T11:22:30.240Z,32.42
2023-02-13T11:24:59.476Z,33.08
2023-02-13T11:27:30.605Z,34.08
2023-02-13T11:29:58.997Z,33.70
2023-02-13T11:32:27.838Z,35.78
2023-02-13T11:34:56.624Z,32.28
2023-02-13T11:37:26.760Z,33.88
2023-02-13T11:39:55.057Z,31.85
2023-02-13T11:42:27.305Z,30.38
2023-02-13T11:44:58.553Z,32.20
2023-02-13T11:50:05.145Z,33.20
2023-02-13T11:52:34.746Z,32.35
2023-02-13T11:55:05.852Z,31.20
2023-02-13T11:57:34.699Z,35.08
2023-02-13T12:00:28.067Z,37.60
2023-02-13T12:02:55.393Z,32.70
2023-02-13T12:05:52.027Z,37.78
2023-02-13T12:08:20.901Z,32.10
2023-02-13T12:10:48.037Z,33.72
2023-02-13T12:13:26.093Z,31.35
2023-02-13T12:16:00.146Z,30.27
2023-02-13T12:18:36.410Z,32.30
2023-02-13T12:21:10.747Z,29.83
2023-02-13T12:23:48.049Z,28.95
2023-02-13T12:26:26.807Z,32.80
2023-02-13T12:29:07.615Z,27.52
2023-02-13T12:31:47.253Z,34.78
2023-02-13T12:34:49.974Z,31.00
2023-02-13T12:37:34.125Z,31.40
2023-02-13T12:40:25.930Z,30.38
2023-02-13T12:43:15.026Z,31.50
2023-02-13T12:45:51.569Z,27.77
2023-02-13T12:48:32.550Z,30.88
2023-02-13T12:51:11.050Z,28.92
2023-02-13T12:53:56.576Z,29.75
2023-02-13T12:56:44.031Z,32.40
2023-02-13T12:59:24.269Z,25.80
2023-02-13T13:02:22.258Z,29.92
2023-02-13T13:05:03.123Z,31.80
2023-02-13T13:07:46.361Z,29.13
2023-02-13T13:10:31.070Z,26.60
2023-02-13T13:13:10.378Z,28.33
2023-02-13T13:15:49.134Z,29.77
2023-02-13T13:18:32.271Z,31.02
2023-02-13T13:21:10.249Z,28.25
2023-02-13T13:23:51.698Z,31.92
2023-02-13T13:29:02.317Z,29.65
2023-02-13T13:31:30.589Z,28.73
2023-02-13T13:34:09.138Z,29.23
2023-02-13T13:36:45.395Z,29.80
2023-02-13T13:39:27.893Z,30.35
2023-02-13T13:42:04.723Z,29.23
2023-02-13T13:45:00.566Z,32.33
2023-02-13T13:47:40.888Z,31.70
2023-02-13T13:50:19.161Z,30.45
2023-02-13T13:53:08.135Z,31.58
2023-02-13T13:56:16.459Z,29.55
2023-02-13T13:58:48.685Z,30.00
2023-02-13T14:01:25.812Z,31.98
2023-02-13T14:03:54.786Z,32.72
2023-02-13T14:06:27.118Z,30.73
2023-02-13T14:09:00.506Z,32.38
2023-02-13T14:11:55.755Z,27.15
2023-02-13T14:14:51.422Z,29.15
2023-02-13T14:17:57.394Z,29.08
2023-02-13T14:20:37.567Z,29.23
2023-02-13T14:23:26.452Z,27.23
2023-02-13T14:26:30.543Z,28.33
2023-02-13T14:29:08.311Z,28.83
2023-02-13T14:32:02.818Z,29.05
2023-02-13T14:34:34.347Z,28.13
2023-02-13T14:37:19.658Z,33.05
2023-02-13T14:40:34.225Z,29.27
2023-02-13T14:43:15.538Z,27.30
2023-02-13T14:45:49.985Z,26.98
2023-02-13T14:48:17.695Z,26.67
2023-02-13T14:50:52.561Z,31.00
2023-02-13T14:53:24.043Z,26.88
2023-02-13T14:55:57.235Z,26.33
2023-02-13T14:58:29.697Z,27.17
2023-02-13T15:01:02.716Z,26.67
2023-02-13T15:03:37.773Z,26.30
2023-02-13T15:06:17.518Z,28.25
2023-02-13T15:08:49.422Z,28.45
2023-02-13T15:11:36.173Z,29.67
2023-02-13T15:14:24.247Z,28.60
2023-02-13T15:16:56.123Z,29.60
2023-02-13T15:19:24.548Z,29.40
2023-02-13T15:21:59.191Z,29.08
2023-02-13T15:24:27.002Z,30.60
2023-02-13T15:26:59.394Z,31.35
2023-02-13T15:29:40.985Z,30.38
2023-02-13T15:32:24.843Z,38.75
2023-02-13T15:34:54.116Z,34.20
2023-02-13T15:37:27.245Z,33.17
2023-02-13T15:39:54.572Z,32.70
2023-02-13T15:42:22.134Z,33.38
2023-02-13T15:44:51.344Z,32.20
2023-02-13T15:47:30.627Z,30.60
2023-02-13T15:49:58.306Z,32.80
2023-02-13T15:52:32.386Z,31.77
2023-02-13T15:54:59.295Z,32.97
2023-02-13T15:57:27.353Z,33.35
2023-02-13T15:59:55.497Z,34.78
2023-02-13T16:02:27.368Z,31.50
2023-02-13T16:05:03.726Z,32.70
2023-02-13T16:07:47.912Z,35.25
2023-02-13T16:10:15.579Z,36.35
2023-02-13T16:12:47.043Z,37.47
2023-02-13T16:17:48.179Z,35.28
2023-02-13T16:20:21.168Z,35.97
2023-02-13T16:22:55.808Z,34.00
2023-02-13T16:25:27.890Z,35.55
2023-02-13T16:28:00.093Z,34.30
2023-02-13T16:30:34.176Z,37.42
2023-02-13T16:33:29.538Z,34.75
2023-02-13T16:35:58.093Z,36.08
2023-02-13T16:38:36.175Z,35.97
2023-02-13T16:41:06.441Z,38.03
2023-02-13T16:43:53.776Z,40.03
2023-02-13T16:46:25.135Z,35.97
2023-02-13T16:51:33.239Z,36.88
2023-02-13T16:54:05.489Z,38.30
2023-02-13T16:56:42.775Z,50.25
2023-02-13T16:59:23.521Z,47.08
2023-02-13T17:02:04.157Z,43.17
2023-02-13T17:04:31.325Z,46.67
2023-02-13T17:07:00.450Z,44.72
2023-02-13T17:09:31.735Z,43.28
2023-02-13T17:11:58.790Z,40.13
2023-02-13T17:14:25.747Z,38.15
2023-02-13T17:19:51.398Z,45.22
2023-02-13T17:22:26.236Z,43.65
2023-02-13T17:25:01.153Z,41.70
2023-02-13T17:27:28.028Z,42.00
2023-02-13T17:29:54.883Z,50.25
2023-02-13T17:32:25.558Z,42.90
2023-02-13T17:34:53.053Z,43.20
2023-02-13T17:37:22.549Z,44.78
2023-02-13T17:39:50.418Z,49.35
2023-02-13T17:42:22.161Z,41.08
2023-02-13T17:44:49.315Z,43.47
2023-02-13T17:47:16.908Z,48.10
2023-02-13T17:49:46.565Z,42.90
2023-02-13T17:52:17.018Z,42.90
2023-02-13T17:54:44.290Z,43.60
2023-02-13T17:57:14.883Z,45.10
2023-02-13T17:59:43.719Z,43.08
2023-02-13T18:02:15.257Z,46.13
2023-02-13T18:07:13.746Z,50.92
2023-02-13T18:09:40.712Z,52.95
2023-02-13T18:12:12.234Z,55.65
2023-02-13T18:14:39.290Z,53.00
2023-02-13T18:17:07.758Z,61.35
2023-02-13T18:19:34.989Z,54.08
2023-02-13T18:22:01.822Z,56.78
2023-02-13T18:24:29.622Z,52.70
2023-02-13T18:27:05.709Z,50.42
2023-02-13T18:29:32.500Z,46.35
2023-02-13T18:31:59.335Z,46.13
2023-02-13T18:34:29.128Z,47.05
2023-02-13T18:36:56.041Z,48.60
2023-02-13T18:39:23.017Z,47.47
2023-02-13T18:41:49.921Z,43.03
2023-02-13T18:44:28.179Z,41.55
2023-02-13T18:46:57.813Z,43.53
2023-02-13T18:49:26.034Z,45.80
2023-02-13T18:51:55.297Z,46.75
2023-02-13T18:54:22.082Z,45.30
2023-02-13T18:56:49.643Z,45.50
2023-02-13T18:59:16.979Z,51.20
2023-02-13T19:01:44.789Z,60.55
2023-02-13T19:04:12.076Z,55.35
2023-02-13T19:06:43.054Z,51.40
2023-02-13T19:09:19.825Z,66.13
2023-02-13T19:11:46.679Z,51.92
2023-02-13T19:14:14.789Z,48.95
2023-02-13T19:16:42.429Z,53.15
2023-02-13T19:19:09.307Z,49.17
2023-02-13T19:21:40.868Z,62.83
2023-02-13T19:24:11.250Z,68.38
2023-02-13T19:26:41.527Z,69.90
2023-02-13T19:29:09.025Z,63.35
2023-02-13T19:31:35.848Z,56.28
2023-02-13T19:34:03.191Z,61.60
2023-02-13T19:36:30.820Z,55.67
2023-02-13T19:39:02.161Z,50.50
2023-02-13T19:41:29.235Z,50.42
2023-02-13T19:44:01.508Z,53.83
2023-02-13T19:46:30.268Z,49.28
2023-02-13T19:48:57.688Z,47.42
2023-02-13T19:51:29.524Z,51.55
2023-02-13T19:53:59.956Z,50.60
2023-02-13T19:56:27.658Z,62.30
2023-02-13T19:58:54.904Z,50.80
2023-02-13T20:01:27.577Z,55.92
2023-02-13T20:03:55.012Z,56.78
2023-02-13T20:06:26.649Z,51.95
2023-02-13T20:08:54.726Z,58.38
2023-02-13T20:11:22.141Z,60.47
2023-02-13T20:14:00.475Z,55.28
2023-02-13T20:16:29.463Z,52.67
2023-02-13T20:18:56.761Z,58.08
2023-02-13T20:21:23.861Z,51.22
2023-02-13T20:23:52.597Z,50.92
2023-02-13T20:26:19.900Z,50.90
2023-02-13T20:28:49.385Z,49.75
2023-02-13T20:31:21.063Z,52.78
2023-02-13T20:33:50.897Z,51.83
2023-02-13T20:36:19.825Z,50.63
2023-02-13T20:38:47.080Z,59.85
2023-02-13T20:41:16.649Z,55.45
2023-02-13T20:43:44.969Z,54.20
2023-02-13T20:46:12.433Z,62.10
2023-02-13T20:48:40.701Z,58.55
2023-02-13T20:51:11.417Z,59.00
2023-02-13T20:53:39.680Z,55.63
2023-02-13T20:56:12.280Z,63.30
2023-02-13T20:58:40.681Z,62.25
2023-02-13T21:01:12.456Z,57.72
2023-02-13T21:03:39.373Z,55.95
2023-02-13T21:06:09.637Z,54.63
2023-02-13T21:08:38.592Z,61.58
2023-02-13T21:11:07.024Z,55.88
2023-02-13T21:13:35.310Z,56.65
2023-02-13T21:16:05.334Z,59.80
2023-02-13T21:18:32.458Z,54.90
2023-02-13T21:21:00.431Z,58.78
2023-02-13T21:23:29.322Z,58.50
2023-02-13T21:25:56.027Z,60.92
2023-02-13T21:28:23.732Z,62.08
2023-02-13T21:30:50.582Z,56.78
2023-02-13T21:33:17.769Z,57.38
2023-02-13T21:35:44.786Z,66.28
2023-02-13T21:38:12.421Z,60.78
2023-02-13T21:40:42.779Z,63.65
2023-02-13T21:43:10.288Z,59.90
2023-02-13T21:45:37.047Z,60.00
2023-02-13T21:48:04.582Z,60.33
2023-02-13T21:50:32.686Z,56.83
2023-02-13T21:52:59.481Z,63.63
2023-02-13T21:55:26.463Z,59.25
2023-02-13T21:57:54.986Z,57.83
2023-02-13T22:00:22.325Z,58.40
2023-02-13T22:02:49.230Z,56.58
2023-02-13T22:05:16.133Z,58.97
2023-02-13T22:07:43.263Z,57.58
2023-02-13T22:10:10.868Z,61.42
2023-02-13T22:12:37.812Z,64.45
2023-02-13T22:15:07.800Z,58.85
2023-02-13T22:17:37.504Z,59.47
2023-02-13T22:20:05.482Z,59.85
2023-02-13T22:22:32.458Z,61.78
2023-02-13T22:24:59.261Z,58.45
2023-02-13T22:27:26.094Z,54.10
2023-02-13T22:29:53.552Z,54.42
2023-02-13T22:32:22.383Z,54.22
2023-02-13T22:34:49.311Z,61.17
2023-02-13T22:37:16.613Z,59.53
2023-02-13T22:39:43.495Z,59.90
2023-02-13T22:42:10.682Z,54.55
2023-02-13T22:44:37.773Z,73.00
2023-02-13T22:47:06.453Z,64.93
2023-02-13T22:49:36.847Z,57.25
2023-02-13T22:52:03.962Z,58.10
2023-02-13T22:54:31.089Z,58.65
2023-02-13T22:56:58.469Z,64.03
2023-02-13T22:59:26.096Z,60.28
2023-02-13T23:01:52.899Z,54.33
2023-02-13T23:04:21.049Z,61.50
2023-02-13T23:06:49.556Z,53.42
2023-02-13T23:09:16.396Z,60.63
2023-02-13T23:11:43.315Z,54.97
2023-02-13T23:14:10.742Z,60.97
2023-02-13T23:16:38.407Z,57.08
2023-02-13T23:19:06.227Z,52.20
2023-02-13T23:21:34.334Z,59.78
2023-02-13T23:24:02.613Z,62.67
2023-02-13T23:26:29.358Z,57.95
2023-02-13T23:28:56.431Z,62.20
2023-02-13T23:31:23.224Z,58.78
2023-02-13T23:33:49.998Z,58.88
2023-02-13T23:36:17.017Z,52.90
2023-02-13T23:38:44.284Z,60.80
2023-02-13T23:41:12.927Z,54.78
2023-02-13T23:43:39.928Z,56.10
2023-02-13T23:46:07.657Z,64.45
2023-02-13T23:48:34.986Z,69.22
2023-02-13T23:51:02.365Z,57.10
2023-02-13T23:53:29.539Z,63.50
2023-02-13T23:55:56.690Z,62.95
2023-02-13T23:58:27.925Z,57.75
